sensor_id;sensor_type;location;lat;lon;timestamp;P1;durP1;ratioP1;P2;durP2;ratioP2
23642;SDS011;11998;55.788;37.572;2023-03-16T00:00:30;21.80;;;14.90;;
23642;SDS011;11998;55.788;37.572;2023-03-16T00:01:31;20.88;;;15.63;;
23642;SDS011;11998;55.788;37.572;2023-03-16T00:02:32;23.60;;;16.20;;
23642;SDS011;11998;55.788;37.572;2023-03-16T00:03:32;18.77;;;15.50;;
23642;SDS011;11998;55.788;37.572;2023-03-16T00:04:33;17.27;;;15.00;;
23642;SDS011;11998;55.788;37.572;2023-03-16T00:05:39;23.27;;;14.95;;
23642;SDS011;11998;55.788;37.572;2023-03-16T00:06:39;20.60;;;14.77;;
23642;SDS011;11998;55.788;37.572;2023-03-16T00:07:40;17.30;;;14.80;;
23642;SDS011;11998;55.788;37.572;2023-03-16T00:08:49;20.30;;;14.95;;
23642;SDS011;11998;55.788;37.572;2023-03-16T00:09:49;18.30;;;14.90;;
23642;SDS011;11998;55.788;37.572;2023-03-16T00:10:51;21.07;;;15.10;;
23642;SDS011;11998;55.788;37.572;2023-03-16T00:11:53;34.38;;;14.98;;
23642;SDS011;11998;55.788;37.572;2023-03-16T00:12:53;20.53;;;15.67;;
23642;SDS011;11998;55.788;37.572;2023-03-16T00:13:54;19.00;;;15.63;;
23642;SDS011;11998;55.788;37.572;2023-03-16T00:14:54;20.23;;;15.40;;
23642;SDS011;11998;55.788;37.572;2023-03-16T00:15:55;18.17;;;14.50;;
23642;SDS011;11998;55.788;37.572;2023-03-16T00:16:56;18.02;;;15.27;;
23642;SDS011;11998;55.788;37.572;2023-03-16T00:17:57;23.07;;;16.10;;
23642;SDS011;11998;55.788;37.572;2023-03-16T00:18:57;20.20;;;15.13;;
23642;SDS011;11998;55.788;37.572;2023-03-16T00:19:58;19.73;;;15.20;;
23642;SDS011;11998;55.788;37.572;2023-03-16T00:21:01;20.67;;;15.60;;
23642;SDS011;11998;55.788;37.572;2023-03-16T00:22:02;21.60;;;15.70;;
23642;SDS011;11998;55.788;37.572;2023-03-16T00:23:02;24.73;;;14.57;;
23642;SDS011;11998;55.788;37.572;2023-03-16T00:24:05;22.37;;;15.27;;
23642;SDS011;11998;55.788;37.572;2023-03-16T00:25:06;18.27;;;14.85;;
23642;SDS011;11998;55.788;37.572;2023-03-16T00:26:07;19.52;;;15.18;;
23642;SDS011;11998;55.788;37.572;2023-03-16T00:27:09;18.77;;;14.77;;
23642;SDS011;11998;55.788;37.572;2023-03-16T00:28:13;19.50;;;15.38;;
23642;SDS011;11998;55.788;37.572;2023-03-16T00:29:14;18.93;;;15.17;;
23642;SDS011;11998;55.788;37.572;2023-03-16T00:30:14;21.77;;;15.57;;
23642;SDS011;11998;55.788;37.572;2023-03-16T00:31:14;18.10;;;15.33;;
23642;SDS011;11998;55.788;37.572;2023-03-16T00:32:18;21.17;;;14.80;;
23642;SDS011;11998;55.788;37.572;2023-03-16T00:33:19;19.88;;;15.18;;
23642;SDS011;11998;55.788;37.572;2023-03-16T00:34:20;19.03;;;15.90;;
23642;SDS011;11998;55.788;37.572;2023-03-16T00:35:22;24.25;;;15.40;;
23642;SDS011;11998;55.788;37.572;2023-03-16T00:36:22;17.93;;;15.20;;
23642;SDS011;11998;55.788;37.572;2023-03-16T00:37:25;19.70;;;15.70;;
23642;SDS011;11998;55.788;37.572;2023-03-16T00:38:27;20.08;;;15.75;;
23642;SDS011;11998;55.788;37.572;2023-03-16T00:39:28;19.83;;;16.25;;
23642;SDS011;11998;55.788;37.572;2023-03-16T00:40:28;19.83;;;16.03;;
23642;SDS011;11998;55.788;37.572;2023-03-16T00:41:29;21.75;;;16.00;;
23642;SDS011;11998;55.788;37.572;2023-03-16T00:42:29;26.63;;;15.93;;
23642;SDS011;11998;55.788;37.572;2023-03-16T00:43:33;17.73;;;15.68;;
23642;SDS011;11998;55.788;37.572;2023-03-16T00:44:39;19.05;;;15.32;;
23642;SDS011;11998;55.788;37.572;2023-03-16T00:45:43;18.73;;;15.65;;
23642;SDS011;11998;55.788;37.572;2023-03-16T00:46:43;24.90;;;16.43;;
23642;SDS011;11998;55.788;37.572;2023-03-16T00:47:44;22.10;;;16.13;;
23642;SDS011;11998;55.788;37.572;2023-03-16T00:48:45;21.17;;;16.17;;
23642;SDS011;11998;55.788;37.572;2023-03-16T00:49:46;18.17;;;15.32;;
23642;SDS011;11998;55.788;37.572;2023-03-16T00:50:46;21.70;;;16.97;;
23642;SDS011;11998;55.788;37.572;2023-03-16T00:51:47;20.83;;;16.60;;
23642;SDS011;11998;55.788;37.572;2023-03-16T00:52:47;19.90;;;15.40;;
23642;SDS011;11998;55.788;37.572;2023-03-16T00:53:50;19.83;;;16.48;;
23642;SDS011;11998;55.788;37.572;2023-03-16T00:54:51;20.70;;;16.07;;
23642;SDS011;11998;55.788;37.572;2023-03-16T00:55:52;21.58;;;16.30;;
23642;SDS011;11998;55.788;37.572;2023-03-16T00:56:52;20.70;;;16.70;;
23642;SDS011;11998;55.788;37.572;2023-03-16T00:57:53;18.53;;;16.53;;
23642;SDS011;11998;55.788;37.572;2023-03-16T00:58:53;23.30;;;16.87;;
23642;SDS011;11998;55.788;37.572;2023-03-16T00:59:56;20.77;;;16.42;;
23642;SDS011;11998;55.788;37.572;2023-03-16T01:00:57;18.23;;;16.07;;
23642;SDS011;11998;55.788;37.572;2023-03-16T01:01:58;18.48;;;15.95;;
23642;SDS011;11998;55.788;37.572;2023-03-16T01:03:01;20.23;;;15.63;;
23642;SDS011;11998;55.788;37.572;2023-03-16T01:04:01;23.75;;;16.55;;
23642;SDS011;11998;55.788;37.572;2023-03-16T01:05:02;20.60;;;15.23;;
23642;SDS011;11998;55.788;37.572;2023-03-16T01:06:05;18.70;;;16.52;;
23642;SDS011;11998;55.788;37.572;2023-03-16T01:07:06;21.15;;;16.83;;
23642;SDS011;11998;55.788;37.572;2023-03-16T01:08:07;21.42;;;16.35;;
23642;SDS011;11998;55.788;37.572;2023-03-16T01:09:08;21.57;;;16.30;;
23642;SDS011;11998;55.788;37.572;2023-03-16T01:10:09;21.33;;;16.13;;
23642;SDS011;11998;55.788;37.572;2023-03-16T01:11:13;20.30;;;17.53;;
23642;SDS011;11998;55.788;37.572;2023-03-16T01:12:16;22.13;;;16.42;;
23642;SDS011;11998;55.788;37.572;2023-03-16T01:13:16;21.73;;;17.35;;
23642;SDS011;11998;55.788;37.572;2023-03-16T01:14:16;20.57;;;17.10;;
23642;SDS011;11998;55.788;37.572;2023-03-16T01:15:17;19.53;;;16.10;;
23642;SDS011;11998;55.788;37.572;2023-03-16T01:16:17;23.60;;;16.60;;
23642;SDS011;11998;55.788;37.572;2023-03-16T01:17:22;22.90;;;16.80;;
23642;SDS011;11998;55.788;37.572;2023-03-16T01:18:22;20.50;;;17.20;;
23642;SDS011;11998;55.788;37.572;2023-03-16T01:19:23;18.57;;;16.57;;
23642;SDS011;11998;55.788;37.572;2023-03-16T01:20:24;22.63;;;17.83;;
23642;SDS011;11998;55.788;37.572;2023-03-16T01:21:25;21.20;;;18.15;;
23642;SDS011;11998;55.788;37.572;2023-03-16T01:22:26;20.03;;;16.97;;
23642;SDS011;11998;55.788;37.572;2023-03-16T01:23:27;22.83;;;18.52;;
23642;SDS011;11998;55.788;37.572;2023-03-16T01:24:30;21.90;;;18.13;;
23642;SDS011;11998;55.788;37.572;2023-03-16T01:25:31;19.17;;;17.20;;
23642;SDS011;11998;55.788;37.572;2023-03-16T01:26:31;22.73;;;18.30;;
23642;SDS011;11998;55.788;37.572;2023-03-16T01:27:33;20.77;;;18.08;;
23642;SDS011;11998;55.788;37.572;2023-03-16T01:28:33;23.40;;;18.53;;
23642;SDS011;11998;55.788;37.572;2023-03-16T01:29:34;23.20;;;18.63;;
23642;SDS011;11998;55.788;37.572;2023-03-16T01:30:34;21.70;;;17.53;;
23642;SDS011;11998;55.788;37.572;2023-03-16T01:31:34;23.90;;;18.10;;
23642;SDS011;11998;55.788;37.572;2023-03-16T01:32:35;24.57;;;18.27;;
23642;SDS011;11998;55.788;37.572;2023-03-16T01:33:35;21.53;;;18.47;;
23642;SDS011;11998;55.788;37.572;2023-03-16T01:34:36;22.67;;;18.30;;
23642;SDS011;11998;55.788;37.572;2023-03-16T01:35:37;21.73;;;18.87;;
23642;SDS011;11998;55.788;37.572;2023-03-16T01:36:37;22.20;;;19.03;;
23642;SDS011;11998;55.788;37.572;2023-03-16T01:37:38;24.63;;;18.90;;
23642;SDS011;11998;55.788;37.572;2023-03-16T01:38:38;24.87;;;20.10;;
23642;SDS011;11998;55.788;37.572;2023-03-16T01:39:39;22.47;;;19.40;;
23642;SDS011;11998;55.788;37.572;2023-03-16T01:40:39;27.40;;;18.93;;
23642;SDS011;11998;55.788;37.572;2023-03-16T01:41:40;24.33;;;20.57;;
23642;SDS011;11998;55.788;37.572;2023-03-16T01:42:48;26.45;;;20.08;;
23642;SDS011;11998;55.788;37.572;2023-03-16T01:43:48;21.90;;;19.40;;
23642;SDS011;11998;55.788;37.572;2023-03-16T01:44:55;21.80;;;19.50;;
23642;SDS011;11998;55.788;37.572;2023-03-16T01:46:56;24.60;;;19.07;;
23642;SDS011;11998;55.788;37.572;2023-03-16T01:47:56;23.40;;;19.50;;
23642;SDS011;11998;55.788;37.572;2023-03-16T01:49:58;25.37;;;19.77;;
23642;SDS011;11998;55.788;37.572;2023-03-16T01:50:58;24.20;;;20.53;;
23642;SDS011;11998;55.788;37.572;2023-03-16T01:52:03;25.50;;;19.73;;
23642;SDS011;11998;55.788;37.572;2023-03-16T01:53:06;22.08;;;19.67;;
23642;SDS011;11998;55.788;37.572;2023-03-16T01:55:19;26.00;;;20.80;;
23642;SDS011;11998;55.788;37.572;2023-03-16T01:56:25;22.63;;;19.90;;
23642;SDS011;11998;55.788;37.572;2023-03-16T01:57:26;27.13;;;20.60;;
23642;SDS011;11998;55.788;37.572;2023-03-16T01:58:31;25.20;;;20.45;;
23642;SDS011;11998;55.788;37.572;2023-03-16T01:59:33;26.53;;;20.30;;
23642;SDS011;11998;55.788;37.572;2023-03-16T02:00:35;25.15;;;20.55;;
23642;SDS011;11998;55.788;37.572;2023-03-16T02:01:35;26.67;;;20.27;;
23642;SDS011;11998;55.788;37.572;2023-03-16T02:02:37;24.60;;;20.53;;
23642;SDS011;11998;55.788;37.572;2023-03-16T02:03:38;24.92;;;20.77;;
23642;SDS011;11998;55.788;37.572;2023-03-16T02:04:41;23.07;;;20.27;;
23642;SDS011;11998;55.788;37.572;2023-03-16T02:05:45;23.02;;;20.58;;
23642;SDS011;11998;55.788;37.572;2023-03-16T02:06:46;23.38;;;20.17;;
23642;SDS011;11998;55.788;37.572;2023-03-16T02:07:47;25.43;;;20.40;;
23642;SDS011;11998;55.788;37.572;2023-03-16T02:08:48;25.88;;;20.25;;
23642;SDS011;11998;55.788;37.572;2023-03-16T02:09:49;23.77;;;21.10;;
23642;SDS011;11998;55.788;37.572;2023-03-16T02:10:50;26.38;;;20.67;;
23642;SDS011;11998;55.788;37.572;2023-03-16T02:11:53;24.60;;;20.48;;
23642;SDS011;11998;55.788;37.572;2023-03-16T02:12:54;23.07;;;19.73;;
23642;SDS011;11998;55.788;37.572;2023-03-16T02:13:55;25.97;;;20.77;;
23642;SDS011;11998;55.788;37.572;2023-03-16T02:14:57;22.80;;;20.10;;
23642;SDS011;11998;55.788;37.572;2023-03-16T02:15:58;25.10;;;20.03;;
23642;SDS011;11998;55.788;37.572;2023-03-16T02:16:59;24.13;;;20.17;;
23642;SDS011;11998;55.788;37.572;2023-03-16T02:17:59;25.23;;;20.40;;
23642;SDS011;11998;55.788;37.572;2023-03-16T02:19:00;28.00;;;20.63;;
23642;SDS011;11998;55.788;37.572;2023-03-16T02:21:31;22.75;;;19.92;;
23642;SDS011;11998;55.788;37.572;2023-03-16T02:23:28;25.63;;;19.83;;
23642;SDS011;11998;55.788;37.572;2023-03-16T02:24:31;29.20;;;20.13;;
23642;SDS011;11998;55.788;37.572;2023-03-16T02:26:42;22.40;;;19.73;;
23642;SDS011;11998;55.788;37.572;2023-03-16T02:30:43;25.73;;;19.58;;
23642;SDS011;11998;55.788;37.572;2023-03-16T02:31:43;23.20;;;19.50;;
23642;SDS011;11998;55.788;37.572;2023-03-16T02:32:44;24.97;;;20.17;;
23642;SDS011;11998;55.788;37.572;2023-03-16T02:33:45;24.45;;;19.98;;
23642;SDS011;11998;55.788;37.572;2023-03-16T02:34:46;25.65;;;19.60;;
23642;SDS011;11998;55.788;37.572;2023-03-16T02:35:47;23.83;;;19.83;;
23642;SDS011;11998;55.788;37.572;2023-03-16T02:36:47;26.40;;;20.87;;
23642;SDS011;11998;55.788;37.572;2023-03-16T02:37:48;23.17;;;20.67;;
23642;SDS011;11998;55.788;37.572;2023-03-16T02:38:49;25.63;;;20.20;;
23642;SDS011;11998;55.788;37.572;2023-03-16T02:39:49;25.73;;;20.73;;
23642;SDS011;11998;55.788;37.572;2023-03-16T02:40:55;24.53;;;20.57;;
23642;SDS011;11998;55.788;37.572;2023-03-16T02:41:57;25.13;;;20.55;;
23642;SDS011;11998;55.788;37.572;2023-03-16T02:44:00;22.17;;;18.87;;
23642;SDS011;11998;55.788;37.572;2023-03-16T02:45:02;21.13;;;18.35;;
23642;SDS011;11998;55.788;37.572;2023-03-16T02:46:03;22.60;;;19.27;;
23642;SDS011;11998;55.788;37.572;2023-03-16T02:47:08;24.30;;;18.87;;
23642;SDS011;11998;55.788;37.572;2023-03-16T02:48:25;23.95;;;18.48;;
23642;SDS011;11998;55.788;37.572;2023-03-16T02:49:29;24.40;;;18.73;;
23642;SDS011;11998;55.788;37.572;2023-03-16T02:50:34;23.48;;;19.98;;
23642;SDS011;11998;55.788;37.572;2023-03-16T02:51:34;22.30;;;19.40;;
23642;SDS011;11998;55.788;37.572;2023-03-16T02:52:35;21.03;;;18.83;;
23642;SDS011;11998;55.788;37.572;2023-03-16T02:53:36;24.73;;;19.38;;
23642;SDS011;11998;55.788;37.572;2023-03-16T02:54:37;21.30;;;18.63;;
23642;SDS011;11998;55.788;37.572;2023-03-16T02:55:37;25.17;;;19.40;;
23642;SDS011;11998;55.788;37.572;2023-03-16T02:56:38;24.73;;;19.43;;
23642;SDS011;11998;55.788;37.572;2023-03-16T02:57:39;23.15;;;19.83;;
23642;SDS011;11998;55.788;37.572;2023-03-16T02:58:40;23.93;;;19.13;;
23642;SDS011;11998;55.788;37.572;2023-03-16T02:59:40;23.17;;;19.47;;
23642;SDS011;11998;55.788;37.572;2023-03-16T03:00:40;23.27;;;18.70;;
23642;SDS011;11998;55.788;37.572;2023-03-16T03:01:41;26.67;;;19.43;;
23642;SDS011;11998;55.788;37.572;2023-03-16T03:02:41;22.80;;;19.53;;
23642;SDS011;11998;55.788;37.572;2023-03-16T03:03:42;24.03;;;19.83;;
23642;SDS011;11998;55.788;37.572;2023-03-16T03:04:42;24.33;;;18.90;;
23642;SDS011;11998;55.788;37.572;2023-03-16T03:05:45;19.85;;;17.70;;
23642;SDS011;11998;55.788;37.572;2023-03-16T03:06:45;25.20;;;18.50;;
23642;SDS011;11998;55.788;37.572;2023-03-16T03:07:46;25.07;;;18.30;;
23642;SDS011;11998;55.788;37.572;2023-03-16T03:08:46;26.77;;;18.70;;
23642;SDS011;11998;55.788;37.572;2023-03-16T03:09:47;26.07;;;18.63;;
23642;SDS011;11998;55.788;37.572;2023-03-16T03:10:47;22.43;;;19.50;;
23642;SDS011;11998;55.788;37.572;2023-03-16T03:11:48;22.27;;;18.77;;
23642;SDS011;11998;55.788;37.572;2023-03-16T03:12:49;26.23;;;18.58;;
23642;SDS011;11998;55.788;37.572;2023-03-16T03:13:51;20.58;;;18.38;;
23642;SDS011;11998;55.788;37.572;2023-03-16T03:14:51;24.50;;;19.03;;
23642;SDS011;11998;55.788;37.572;2023-03-16T03:15:51;21.93;;;18.23;;
23642;SDS011;11998;55.788;37.572;2023-03-16T03:16:52;25.13;;;18.60;;
23642;SDS011;11998;55.788;37.572;2023-03-16T03:17:52;24.13;;;19.30;;
23642;SDS011;11998;55.788;37.572;2023-03-16T03:18:52;23.63;;;18.80;;
23642;SDS011;11998;55.788;37.572;2023-03-16T03:19:53;24.77;;;18.60;;
23642;SDS011;11998;55.788;37.572;2023-03-16T03:20:53;23.17;;;19.20;;
23642;SDS011;11998;55.788;37.572;2023-03-16T03:21:54;21.53;;;18.70;;
23642;SDS011;11998;55.788;37.572;2023-03-16T03:22:57;22.88;;;18.92;;
23642;SDS011;11998;55.788;37.572;2023-03-16T03:23:57;20.07;;;17.77;;
23642;SDS011;11998;55.788;37.572;2023-03-16T03:24:58;23.13;;;18.03;;
23642;SDS011;11998;55.788;37.572;2023-03-16T03:26:01;22.80;;;18.48;;
23642;SDS011;11998;55.788;37.572;2023-03-16T03:27:03;20.65;;;17.77;;
23642;SDS011;11998;55.788;37.572;2023-03-16T03:28:04;21.38;;;18.02;;
23642;SDS011;11998;55.788;37.572;2023-03-16T03:29:05;20.00;;;17.47;;
23642;SDS011;11998;55.788;37.572;2023-03-16T03:30:05;20.30;;;18.13;;
23642;SDS011;11998;55.788;37.572;2023-03-16T03:31:06;23.17;;;18.67;;
23642;SDS011;11998;55.788;37.572;2023-03-16T03:32:07;21.52;;;17.92;;
23642;SDS011;11998;55.788;37.572;2023-03-16T03:33:07;27.37;;;17.13;;
23642;SDS011;11998;55.788;37.572;2023-03-16T03:34:08;25.03;;;17.33;;
23642;SDS011;11998;55.788;37.572;2023-03-16T03:35:08;25.47;;;18.20;;
23642;SDS011;11998;55.788;37.572;2023-03-16T03:36:11;20.75;;;17.90;;
23642;SDS011;11998;55.788;37.572;2023-03-16T03:37:12;21.63;;;18.40;;
23642;SDS011;11998;55.788;37.572;2023-03-16T03:38:12;22.63;;;18.77;;
23642;SDS011;11998;55.788;37.572;2023-03-16T03:39:13;23.23;;;18.13;;
23642;SDS011;11998;55.788;37.572;2023-03-16T03:40:14;23.60;;;18.53;;
23642;SDS011;11998;55.788;37.572;2023-03-16T03:41:15;26.08;;;17.08;;
23642;SDS011;11998;55.788;37.572;2023-03-16T03:42:15;25.37;;;18.23;;
23642;SDS011;11998;55.788;37.572;2023-03-16T03:43:16;20.50;;;18.30;;
23642;SDS011;11998;55.788;37.572;2023-03-16T03:44:16;22.50;;;17.77;;
23642;SDS011;11998;55.788;37.572;2023-03-16T03:45:17;24.27;;;18.87;;
23642;SDS011;11998;55.788;37.572;2023-03-16T03:46:17;26.13;;;18.90;;
23642;SDS011;11998;55.788;37.572;2023-03-16T03:47:18;25.87;;;18.23;;
23642;SDS011;11998;55.788;37.572;2023-03-16T03:48:18;23.35;;;18.00;;
23642;SDS011;11998;55.788;37.572;2023-03-16T03:49:19;27.40;;;18.43;;
23642;SDS011;11998;55.788;37.572;2023-03-16T03:50:19;21.40;;;17.40;;
23642;SDS011;11998;55.788;37.572;2023-03-16T03:51:20;28.10;;;16.73;;
23642;SDS011;11998;55.788;37.572;2023-03-16T03:52:20;22.83;;;17.97;;
23642;SDS011;11998;55.788;37.572;2023-03-16T03:53:21;24.50;;;18.33;;
23642;SDS011;11998;55.788;37.572;2023-03-16T03:54:21;24.33;;;18.10;;
23642;SDS011;11998;55.788;37.572;2023-03-16T03:55:22;24.20;;;18.57;;
23642;SDS011;11998;55.788;37.572;2023-03-16T03:56:22;21.87;;;17.33;;
23642;SDS011;11998;55.788;37.572;2023-03-16T03:57:23;25.20;;;17.83;;
23642;SDS011;11998;55.788;37.572;2023-03-16T03:58:26;24.80;;;18.33;;
23642;SDS011;11998;55.788;37.572;2023-03-16T03:59:26;21.95;;;17.35;;
23642;SDS011;11998;55.788;37.572;2023-03-16T04:00:29;21.05;;;18.67;;
23642;SDS011;11998;55.788;37.572;2023-03-16T04:01:30;22.20;;;18.70;;
23642;SDS011;11998;55.788;37.572;2023-03-16T04:02:30;22.27;;;17.57;;
23642;SDS011;11998;55.788;37.572;2023-03-16T04:03:30;21.10;;;18.37;;
23642;SDS011;11998;55.788;37.572;2023-03-16T04:04:31;21.40;;;18.20;;
23642;SDS011;11998;55.788;37.572;2023-03-16T04:05:31;24.33;;;18.93;;
23642;SDS011;11998;55.788;37.572;2023-03-16T04:06:32;23.83;;;18.50;;
23642;SDS011;11998;55.788;37.572;2023-03-16T04:07:32;25.17;;;18.90;;
23642;SDS011;11998;55.788;37.572;2023-03-16T04:08:33;23.00;;;18.47;;
23642;SDS011;11998;55.788;37.572;2023-03-16T04:09:33;22.77;;;17.97;;
23642;SDS011;11998;55.788;37.572;2023-03-16T04:10:35;22.90;;;18.70;;
23642;SDS011;11998;55.788;37.572;2023-03-16T04:11:36;22.67;;;17.83;;
23642;SDS011;11998;55.788;37.572;2023-03-16T04:12:36;22.80;;;18.80;;
23642;SDS011;11998;55.788;37.572;2023-03-16T04:13:37;25.93;;;18.23;;
23642;SDS011;11998;55.788;37.572;2023-03-16T04:14:37;23.27;;;18.90;;
23642;SDS011;11998;55.788;37.572;2023-03-16T04:15:37;24.17;;;18.23;;
23642;SDS011;11998;55.788;37.572;2023-03-16T04:16:38;23.43;;;18.07;;
23642;SDS011;11998;55.788;37.572;2023-03-16T04:17:38;26.60;;;19.00;;
23642;SDS011;11998;55.788;37.572;2023-03-16T04:18:38;21.43;;;17.67;;
23642;SDS011;11998;55.788;37.572;2023-03-16T04:19:39;20.70;;;18.50;;
23642;SDS011;11998;55.788;37.572;2023-03-16T04:20:39;26.73;;;18.90;;
23642;SDS011;11998;55.788;37.572;2023-03-16T04:21:40;26.20;;;18.57;;
23642;SDS011;11998;55.788;37.572;2023-03-16T04:22:40;24.33;;;17.90;;
23642;SDS011;11998;55.788;37.572;2023-03-16T04:23:42;25.20;;;18.65;;
23642;SDS011;11998;55.788;37.572;2023-03-16T04:24:42;26.60;;;18.63;;
23642;SDS011;11998;55.788;37.572;2023-03-16T04:25:43;23.93;;;19.20;;
23642;SDS011;11998;55.788;37.572;2023-03-16T04:26:44;22.95;;;17.83;;
23642;SDS011;11998;55.788;37.572;2023-03-16T04:27:45;25.87;;;17.87;;
23642;SDS011;11998;55.788;37.572;2023-03-16T04:28:45;26.37;;;18.33;;
23642;SDS011;11998;55.788;37.572;2023-03-16T04:29:46;22.27;;;18.73;;
23642;SDS011;11998;55.788;37.572;2023-03-16T04:30:46;23.67;;;17.73;;
23642;SDS011;11998;55.788;37.572;2023-03-16T04:31:47;26.60;;;19.40;;
23642;SDS011;11998;55.788;37.572;2023-03-16T04:32:47;23.17;;;18.63;;
23642;SDS011;11998;55.788;37.572;2023-03-16T04:33:48;22.47;;;18.60;;
23642;SDS011;11998;55.788;37.572;2023-03-16T04:34:49;21.63;;;18.70;;
23642;SDS011;11998;55.788;37.572;2023-03-16T04:35:49;27.97;;;20.07;;
23642;SDS011;11998;55.788;37.572;2023-03-16T04:36:51;23.40;;;18.17;;
23642;SDS011;11998;55.788;37.572;2023-03-16T04:37:52;25.23;;;19.33;;
23642;SDS011;11998;55.788;37.572;2023-03-16T04:38:52;22.63;;;19.13;;
23642;SDS011;11998;55.788;37.572;2023-03-16T04:39:54;22.33;;;19.55;;
23642;SDS011;11998;55.788;37.572;2023-03-16T04:40:54;26.20;;;17.80;;
23642;SDS011;11998;55.788;37.572;2023-03-16T04:41:55;24.00;;;19.10;;
23642;SDS011;11998;55.788;37.572;2023-03-16T04:42:55;23.07;;;18.83;;
23642;SDS011;11998;55.788;37.572;2023-03-16T04:43:56;34.43;;;19.23;;
23642;SDS011;11998;55.788;37.572;2023-03-16T04:44:57;25.55;;;19.17;;
23642;SDS011;11998;55.788;37.572;2023-03-16T04:45:57;26.93;;;18.87;;
23642;SDS011;11998;55.788;37.572;2023-03-16T04:46:58;22.60;;;17.83;;
23642;SDS011;11998;55.788;37.572;2023-03-16T04:47:58;23.77;;;18.00;;
23642;SDS011;11998;55.788;37.572;2023-03-16T04:48:59;21.93;;;18.03;;
23642;SDS011;11998;55.788;37.572;2023-03-16T04:50:00;23.13;;;18.53;;
23642;SDS011;11998;55.788;37.572;2023-03-16T04:51:02;27.02;;;18.77;;
23642;SDS011;11998;55.788;37.572;2023-03-16T04:52:03;27.30;;;19.25;;
23642;SDS011;11998;55.788;37.572;2023-03-16T04:53:04;25.52;;;18.77;;
23642;SDS011;11998;55.788;37.572;2023-03-16T04:54:04;31.63;;;19.70;;
23642;SDS011;11998;55.788;37.572;2023-03-16T04:55:07;28.52;;;19.17;;
23642;SDS011;11998;55.788;37.572;2023-03-16T04:56:07;24.13;;;20.10;;
23642;SDS011;11998;55.788;37.572;2023-03-16T04:57:08;24.87;;;19.20;;
23642;SDS011;11998;55.788;37.572;2023-03-16T04:58:09;25.73;;;19.47;;
23642;SDS011;11998;55.788;37.572;2023-03-16T04:59:09;24.70;;;19.23;;
23642;SDS011;11998;55.788;37.572;2023-03-16T05:00:10;25.87;;;19.70;;
23642;SDS011;11998;55.788;37.572;2023-03-16T05:01:15;25.50;;;20.08;;
23642;SDS011;11998;55.788;37.572;2023-03-16T05:02:16;24.65;;;20.33;;
23642;SDS011;11998;55.788;37.572;2023-03-16T05:03:20;24.27;;;19.75;;
23642;SDS011;11998;55.788;37.572;2023-03-16T05:04:20;30.80;;;19.83;;
23642;SDS011;11998;55.788;37.572;2023-03-16T05:05:22;25.05;;;20.17;;
23642;SDS011;11998;55.788;37.572;2023-03-16T05:06:22;29.17;;;20.70;;
23642;SDS011;11998;55.788;37.572;2023-03-16T05:07:23;31.20;;;20.77;;
23642;SDS011;11998;55.788;37.572;2023-03-16T05:08:23;27.30;;;20.03;;
23642;SDS011;11998;55.788;37.572;2023-03-16T05:09:24;22.23;;;19.30;;
23642;SDS011;11998;55.788;37.572;2023-03-16T05:10:25;26.93;;;21.23;;
23642;SDS011;11998;55.788;37.572;2023-03-16T05:11:25;24.90;;;19.50;;
23642;SDS011;11998;55.788;37.572;2023-03-16T05:12:26;27.73;;;19.67;;
23642;SDS011;11998;55.788;37.572;2023-03-16T05:13:26;25.20;;;18.93;;
23642;SDS011;11998;55.788;37.572;2023-03-16T05:14:26;23.63;;;19.27;;
23642;SDS011;11998;55.788;37.572;2023-03-16T05:15:27;25.73;;;19.87;;
23642;SDS011;11998;55.788;37.572;2023-03-16T05:16:28;27.33;;;20.00;;
23642;SDS011;11998;55.788;37.572;2023-03-16T05:17:28;29.00;;;20.30;;
23642;SDS011;11998;55.788;37.572;2023-03-16T05:18:29;25.10;;;19.80;;
23642;SDS011;11998;55.788;37.572;2023-03-16T05:19:29;28.87;;;19.93;;
23642;SDS011;11998;55.788;37.572;2023-03-16T05:20:30;25.20;;;19.83;;
23642;SDS011;11998;55.788;37.572;2023-03-16T05:21:30;27.37;;;19.43;;
23642;SDS011;11998;55.788;37.572;2023-03-16T05:22:33;24.92;;;19.33;;
23642;SDS011;11998;55.788;37.572;2023-03-16T05:23:36;25.45;;;20.42;;
23642;SDS011;11998;55.788;37.572;2023-03-16T05:24:36;23.17;;;19.50;;
23642;SDS011;11998;55.788;37.572;2023-03-16T05:25:37;22.27;;;19.00;;
23642;SDS011;11998;55.788;37.572;2023-03-16T05:26:40;24.58;;;19.13;;
23642;SDS011;11998;55.788;37.572;2023-03-16T05:27:41;22.57;;;19.33;;
23642;SDS011;11998;55.788;37.572;2023-03-16T05:28:41;26.83;;;18.48;;
23642;SDS011;11998;55.788;37.572;2023-03-16T05:29:41;26.83;;;19.80;;
23642;SDS011;11998;55.788;37.572;2023-03-16T05:30:45;30.75;;;19.92;;
23642;SDS011;11998;55.788;37.572;2023-03-16T05:31:46;22.33;;;19.40;;
23642;SDS011;11998;55.788;37.572;2023-03-16T05:32:46;28.40;;;20.60;;
23642;SDS011;11998;55.788;37.572;2023-03-16T05:33:47;27.77;;;19.70;;
23642;SDS011;11998;55.788;37.572;2023-03-16T05:34:47;27.63;;;20.83;;
23642;SDS011;11998;55.788;37.572;2023-03-16T05:35:49;26.07;;;20.20;;
23642;SDS011;11998;55.788;37.572;2023-03-16T05:36:50;28.15;;;19.55;;
23642;SDS011;11998;55.788;37.572;2023-03-16T05:37:50;28.77;;;20.90;;
23642;SDS011;11998;55.788;37.572;2023-03-16T05:38:51;28.10;;;20.13;;
23642;SDS011;11998;55.788;37.572;2023-03-16T05:39:51;31.20;;;20.03;;
23642;SDS011;11998;55.788;37.572;2023-03-16T05:40:52;32.37;;;20.67;;
23642;SDS011;11998;55.788;37.572;2023-03-16T05:41:53;33.38;;;20.77;;
23642;SDS011;11998;55.788;37.572;2023-03-16T05:42:55;33.77;;;21.87;;
23642;SDS011;11998;55.788;37.572;2023-03-16T05:43:55;31.67;;;20.50;;
23642;SDS011;11998;55.788;37.572;2023-03-16T05:44:58;32.00;;;21.30;;
23642;SDS011;11998;55.788;37.572;2023-03-16T05:45:59;31.27;;;21.10;;
23642;SDS011;11998;55.788;37.572;2023-03-16T05:46:59;25.07;;;20.77;;
23642;SDS011;11998;55.788;37.572;2023-03-16T05:48:00;30.00;;;20.73;;
23642;SDS011;11998;55.788;37.572;2023-03-16T05:49:00;34.53;;;21.30;;
23642;SDS011;11998;55.788;37.572;2023-03-16T05:50:01;27.00;;;20.20;;
23642;SDS011;11998;55.788;37.572;2023-03-16T05:51:01;30.73;;;20.00;;
23642;SDS011;11998;55.788;37.572;2023-03-16T05:52:05;29.92;;;20.70;;
23642;SDS011;11998;55.788;37.572;2023-03-16T05:53:05;27.47;;;20.53;;
23642;SDS011;11998;55.788;37.572;2023-03-16T05:54:05;31.47;;;20.13;;
23642;SDS011;11998;55.788;37.572;2023-03-16T05:55:07;28.00;;;20.80;;
23642;SDS011;11998;55.788;37.572;2023-03-16T05:56:08;29.27;;;19.70;;
23642;SDS011;11998;55.788;37.572;2023-03-16T05:57:08;31.63;;;20.97;;
23642;SDS011;11998;55.788;37.572;2023-03-16T05:58:09;30.60;;;20.37;;
23642;SDS011;11998;55.788;37.572;2023-03-16T05:59:11;31.98;;;20.50;;
23642;SDS011;11998;55.788;37.572;2023-03-16T06:00:12;29.17;;;20.60;;
23642;SDS011;11998;55.788;37.572;2023-03-16T06:01:15;29.38;;;20.75;;
23642;SDS011;11998;55.788;37.572;2023-03-16T06:02:16;28.27;;;21.20;;
23642;SDS011;11998;55.788;37.572;2023-03-16T06:03:16;31.07;;;20.93;;